createdAt,value
2022-11-24T00:01:12.933Z,2.70
2022-11-24T00:03:41.121Z,2.70
2022-11-24T00:06:11.018Z,2.70
2022-11-24T00:08:40.108Z,2.70
2022-11-24T00:11:08.852Z,2.70
2022-11-24T00:13:39.226Z,2.70
2022-11-24T00:16:10.880Z,2.80
2022-11-24T00:18:41.925Z,2.70
2022-11-24T00:21:10.377Z,2.70
2022-11-24T00:23:39.010Z,2.60
2022-11-24T00:26:08.634Z,2.60
2022-11-24T00:28:37.568Z,2.60
2022-11-24T00:31:06.719Z,2.50
2022-11-24T00:33:36.298Z,2.50
2022-11-24T00:36:04.559Z,2.50
2022-11-24T00:38:32.637Z,2.50
2022-11-24T00:41:00.842Z,2.50
2022-11-24T00:43:29.021Z,2.50
2022-11-24T00:45:57.253Z,2.50
2022-11-24T00:48:25.517Z,2.50
2022-11-24T00:50:59.089Z,2.50
2022-11-24T00:53:27.716Z,2.60
2022-11-24T00:55:55.844Z,2.60
2022-11-24T00:58:24.932Z,2.60
2022-11-24T01:00:53.450Z,2.60
2022-11-24T01:03:22.736Z,2.60
2022-11-24T01:05:50.982Z,2.60
2022-11-24T01:08:20.750Z,2.60
2022-11-24T01:10:48.838Z,2.60
2022-11-24T01:13:17.044Z,2.50
2022-11-24T01:15:45.182Z,2.50
2022-11-24T01:18:13.417Z,2.50
2022-11-24T01:20:41.675Z,2.50
2022-11-24T01:23:09.780Z,2.40
2022-11-24T01:25:41.865Z,2.40
2022-11-24T01:28:10.105Z,2.50
2022-11-24T01:30:38.195Z,2.50
2022-11-24T01:33:06.381Z,2.40
2022-11-24T01:35:34.687Z,2.40
2022-11-24T01:38:02.732Z,2.40
2022-11-24T01:40:30.970Z,2.40
2022-11-24T01:43:03.003Z,2.30
2022-11-24T01:45:41.777Z,2.40
2022-11-24T01:48:14.861Z,2.30
2022-11-24T01:50:43.674Z,2.40
2022-11-24T01:53:12.326Z,2.40
2022-11-24T01:55:41.214Z,2.40
2022-11-24T01:58:11.993Z,2.40
2022-11-24T02:00:40.863Z,2.40
2022-11-24T02:03:09.245Z,2.40
2022-11-24T02:05:40.337Z,2.40
2022-11-24T02:08:12.493Z,2.40
2022-11-24T02:10:40.684Z,2.40
2022-11-24T02:13:10.236Z,2.40
2022-11-24T02:15:38.445Z,2.40
2022-11-24T02:18:07.075Z,2.40
2022-11-24T02:20:38.310Z,2.40
2022-11-24T02:23:11.678Z,2.40
2022-11-24T02:25:45.012Z,2.40
2022-11-24T02:28:16.474Z,2.40
2022-11-24T02:30:44.841Z,2.30
2022-11-24T02:33:13.405Z,2.20
2022-11-24T02:35:41.621Z,2.10
2022-11-24T02:38:11.837Z,2.20
2022-11-24T02:40:41.160Z,2.10
2022-11-24T02:43:12.168Z,2.20
2022-11-24T02:45:41.712Z,2.30
2022-11-24T02:48:09.949Z,2.30
2022-11-24T02:50:38.415Z,2.30
2022-11-24T02:53:06.517Z,2.30
2022-11-24T02:55:34.730Z,2.30
2022-11-24T02:58:02.823Z,2.40
2022-11-24T03:00:30.924Z,2.40
2022-11-24T03:03:00.775Z,2.40
2022-11-24T03:05:29.081Z,2.40
2022-11-24T03:07:57.150Z,2.40
2022-11-24T03:10:26.632Z,2.40
2022-11-24T03:12:55.376Z,2.50
2022-11-24T03:15:24.136Z,2.40
2022-11-24T03:17:52.445Z,2.40
2022-11-24T03:20:22.116Z,2.40
2022-11-24T03:22:53.833Z,2.40
2022-11-24T03:25:24.508Z,2.40
2022-11-24T03:27:53.206Z,2.30
2022-11-24T03:30:21.575Z,2.30
2022-11-24T03:32:49.963Z,2.30
2022-11-24T03:35:18.174Z,2.30
2022-11-24T03:37:47.705Z,2.30
2022-11-24T03:40:16.126Z,2.20
2022-11-24T03:42:44.246Z,2.30
2022-11-24T03:45:38.054Z,2.30
2022-11-24T03:48:00.369Z,2.40
2022-11-24T03:50:28.541Z,2.40
2022-11-24T03:52:58.113Z,2.40
2022-11-24T03:55:26.253Z,2.40
2022-11-24T03:57:54.332Z,2.30
2022-11-24T04:00:22.524Z,2.30
2022-11-24T04:02:50.901Z,2.30
2022-11-24T04:05:18.982Z,2.30
2022-11-24T04:07:47.143Z,2.30
2022-11-24T04:10:16.863Z,2.30
2022-11-24T04:12:46.823Z,2.30
2022-11-24T04:15:15.742Z,2.30
2022-11-24T04:17:44.074Z,2.40
2022-11-24T04:20:13.026Z,2.40
2022-11-24T04:22:41.426Z,2.40
2022-11-24T04:25:10.595Z,2.40
2022-11-24T04:27:40.424Z,2.40
2022-11-24T04:30:09.362Z,2.50
2022-11-24T04:32:37.578Z,2.50
2022-11-24T04:35:05.916Z,2.50
2022-11-24T04:37:35.211Z,2.50
2022-11-24T04:40:04.388Z,2.50
2022-11-24T04:42:32.450Z,2.60
2022-11-24T04:45:02.015Z,2.60
2022-11-24T04:47:30.300Z,2.60
2022-11-24T04:49:58.456Z,2.70
2022-11-24T04:52:26.576Z,2.80
2022-11-24T04:54:54.813Z,2.70
2022-11-24T04:57:23.704Z,2.70
2022-11-24T04:59:54.321Z,2.60
2022-11-24T05:02:23.856Z,2.60
2022-11-24T05:04:52.163Z,2.50
2022-11-24T05:07:20.617Z,2.60
2022-11-24T05:10:06.414Z,2.60
2022-11-24T05:12:34.601Z,2.60
2022-11-24T05:15:04.075Z,2.70
2022-11-24T05:17:37.445Z,2.60
2022-11-24T05:20:07.025Z,2.40
2022-11-24T05:22:35.353Z,2.50
2022-11-24T05:25:03.721Z,2.50
2022-11-24T05:27:32.039Z,2.50
2022-11-24T05:30:01.990Z,2.50
2022-11-24T05:32:30.164Z,2.50
2022-11-24T05:35:00.813Z,2.50
2022-11-24T05:37:29.527Z,2.50
2022-11-24T05:39:57.860Z,2.50
2022-11-24T05:42:47.855Z,2.50
2022-11-24T05:45:17.091Z,2.50
2022-11-24T05:47:45.385Z,2.50
2022-11-24T05:50:16.147Z,2.50
2022-11-24T05:52:44.235Z,2.50
2022-11-24T05:55:12.592Z,2.50
2022-11-24T05:57:40.819Z,2.50
2022-11-24T06:00:10.672Z,2.60
2022-11-24T06:02:39.032Z,2.70
2022-11-24T06:05:07.393Z,2.90
2022-11-24T06:07:36.916Z,2.90
2022-11-24T06:10:05.659Z,2.90
2022-11-24T06:12:33.873Z,2.80
2022-11-24T06:15:01.979Z,2.70
2022-11-24T06:17:30.184Z,2.70
2022-11-24T06:19:58.460Z,2.70
2022-11-24T06:22:26.494Z,2.60
2022-11-24T06:24:55.936Z,2.60
2022-11-24T06:27:24.322Z,2.60
2022-11-24T06:29:52.684Z,2.60
2022-11-24T06:32:20.806Z,2.60
2022-11-24T06:34:48.878Z,2.60
2022-11-24T06:37:16.942Z,2.60
2022-11-24T06:39:44.962Z,2.60
2022-11-24T06:42:19.434Z,2.60
2022-11-24T06:44:47.756Z,2.80
2022-11-24T06:47:15.901Z,3.00
2022-11-24T06:49:43.983Z,2.90
2022-11-24T06:52:11.980Z,2.80
2022-11-24T06:54:40.063Z,2.90
2022-11-24T06:57:11.223Z,2.90
2022-11-24T06:59:40.623Z,2.90
2022-11-24T07:02:10.054Z,2.90
2022-11-24T07:04:38.073Z,2.80
2022-11-24T07:07:08.371Z,2.80
2022-11-24T07:09:36.427Z,2.90
2022-11-24T07:12:06.011Z,2.90
2022-11-24T07:14:36.386Z,2.90
2022-11-24T07:17:05.993Z,3.00
2022-11-24T07:19:34.186Z,2.90
2022-11-24T07:22:02.200Z,3.00
2022-11-24T07:24:30.505Z,3.00
2022-11-24T07:26:58.640Z,3.00
2022-11-24T07:29:26.875Z,3.00
2022-11-24T07:31:54.914Z,3.00
2022-11-24T07:34:24.476Z,3.10
2022-11-24T07:36:52.555Z,3.00
2022-11-24T07:39:20.839Z,3.00
2022-11-24T07:41:48.858Z,3.00
2022-11-24T07:44:17.908Z,3.00
2022-11-24T07:46:46.419Z,3.10
2022-11-24T07:49:14.429Z,3.10
2022-11-24T07:51:43.878Z,3.00
2022-11-24T07:54:12.158Z,3.00
2022-11-24T07:56:40.215Z,3.00
2022-11-24T07:59:10.751Z,3.00
2022-11-24T08:01:39.023Z,3.00
2022-11-24T08:04:07.109Z,2.90
2022-11-24T08:06:41.908Z,2.80
2022-11-24T08:09:12.602Z,2.90
2022-11-24T08:11:40.772Z,2.80
2022-11-24T08:14:08.865Z,2.80
2022-11-24T08:16:37.038Z,2.80
2022-11-24T08:19:05.062Z,2.80
2022-11-24T08:21:33.118Z,2.80
2022-11-24T08:24:01.128Z,2.90
2022-11-24T08:26:30.732Z,2.90
2022-11-24T08:28:59.817Z,3.00
2022-11-24T08:31:33.565Z,2.90
2022-11-24T08:34:02.467Z,2.90
2022-11-24T08:36:30.469Z,3.00
2022-11-24T08:38:59.118Z,2.90
2022-11-24T08:41:27.951Z,2.80
2022-11-24T08:43:57.576Z,2.80
2022-11-24T08:46:25.702Z,2.80
2022-11-24T08:48:54.356Z,2.80
2022-11-24T08:51:23.450Z,2.80
2022-11-24T08:53:57.584Z,2.80
2022-11-24T08:56:25.992Z,2.80
2022-11-24T08:58:54.576Z,2.70
2022-11-24T09:01:24.656Z,2.60
2022-11-24T09:03:53.456Z,2.70
2022-11-24T09:06:23.547Z,2.70
2022-11-24T09:08:51.907Z,2.70
2022-11-24T09:11:20.043Z,2.70
2022-11-24T09:13:48.166Z,2.70
2022-11-24T09:16:17.176Z,2.70
2022-11-24T09:18:46.832Z,2.80
2022-11-24T09:21:15.831Z,2.80
2022-11-24T09:23:44.594Z,2.80
2022-11-24T09:26:13.598Z,2.80
2022-11-24T09:28:43.793Z,2.90
2022-11-24T09:31:13.314Z,2.90
2022-11-24T09:33:42.036Z,2.90
2022-11-24T09:36:11.688Z,2.90
2022-11-24T09:38:40.261Z,2.90
2022-11-24T09:41:26.958Z,2.90
2022-11-24T09:43:58.703Z,2.90
2022-11-24T09:46:30.192Z,2.90
2022-11-24T09:48:58.631Z,2.90
2022-11-24T09:51:29.614Z,3.00
2022-11-24T09:53:59.311Z,3.00
2022-11-24T09:56:29.306Z,3.00
2022-11-24T09:59:00.507Z,3.00
2022-11-24T10:01:30.755Z,3.00
2022-11-24T10:04:05.564Z,3.00
2022-11-24T10:06:39.568Z,3.00
2022-11-24T10:09:14.204Z,3.00
2022-11-24T10:11:47.140Z,3.00
2022-11-24T10:14:26.408Z,3.00
2022-11-24T10:16:55.793Z,3.00
2022-11-24T10:19:37.089Z,3.10
2022-11-24T10:22:17.257Z,3.10
2022-11-24T10:24:54.207Z,3.10
2022-11-24T10:27:26.273Z,3.10
2022-11-24T10:29:55.110Z,3.10
2022-11-24T10:32:25.557Z,3.10
2022-11-24T10:34:54.900Z,3.10
2022-11-24T10:37:26.643Z,3.10
2022-11-24T10:40:00.680Z,3.10
2022-11-24T10:42:32.671Z,3.10
2022-11-24T10:45:01.932Z,3.10
2022-11-24T10:47:30.371Z,3.10
2022-11-24T10:50:01.375Z,3.20
2022-11-24T10:52:32.961Z,3.20
2022-11-24T10:55:01.844Z,3.20
2022-11-24T10:57:33.408Z,3.20
2022-11-24T11:00:01.826Z,3.20
2022-11-24T11:02:31.704Z,3.20
2022-11-24T11:05:01.709Z,3.20
2022-11-24T11:07:31.155Z,3.20
2022-11-24T11:10:19.242Z,3.20
2022-11-24T11:12:47.500Z,3.20
2022-11-24T11:15:25.733Z,3.10
2022-11-24T11:17:57.540Z,3.00
2022-11-24T11:20:28.796Z,3.00
2022-11-24T11:22:58.915Z,2.90
2022-11-24T11:25:31.084Z,3.00
2022-11-24T11:28:17.846Z,3.00
2022-11-24T11:31:16.473Z,3.00
2022-11-24T11:34:04.226Z,3.10
2022-11-24T11:36:34.009Z,3.00
2022-11-24T11:39:03.934Z,3.00
2022-11-24T11:41:34.018Z,3.00
2022-11-24T11:44:06.443Z,2.90
2022-11-24T11:46:35.058Z,2.90
2022-11-24T11:49:03.252Z,2.90
2022-11-24T11:51:36.181Z,2.90
2022-11-24T11:54:09.088Z,2.70
2022-11-24T11:56:40.543Z,2.60
2022-11-24T11:59:22.904Z,2.50
2022-11-24T12:02:01.208Z,2.40
2022-11-24T12:04:39.686Z,2.40
2022-11-24T12:07:20.453Z,2.50
2022-11-24T12:09:54.970Z,2.50
2022-11-24T12:12:35.343Z,2.50
2022-11-24T12:15:10.982Z,2.40
2022-11-24T12:17:41.627Z,2.50
2022-11-24T12:20:19.447Z,2.50
2022-11-24T12:22:49.381Z,2.40
2022-11-24T12:25:24.194Z,2.30
2022-11-24T12:27:55.565Z,2.40
2022-11-24T12:30:26.784Z,2.40
2022-11-24T12:33:01.675Z,2.40
2022-11-24T12:35:33.412Z,2.40
2022-11-24T12:38:06.444Z,2.40
2022-11-24T12:40:46.915Z,2.40
2022-11-24T12:43:20.654Z,2.40
2022-11-24T12:45:54.150Z,2.40
2022-11-24T12:48:28.288Z,2.40
2022-11-24T12:50:58.152Z,2.50
2022-11-24T12:53:27.907Z,2.50
2022-11-24T12:56:06.336Z,2.50
2022-11-24T12:58:38.674Z,2.50
2022-11-24T13:01:16.228Z,2.50
2022-11-24T13:03:49.439Z,2.40
2022-11-24T13:06:19.398Z,2.20
2022-11-24T13:08:47.477Z,2.20
2022-11-24T13:11:36.245Z,2.20
2022-11-24T13:14:06.825Z,2.20
2022-11-24T13:16:40.973Z,2.30
2022-11-24T13:19:22.298Z,2.30
2022-11-24T13:21:52.829Z,2.20
2022-11-24T13:24:28.317Z,2.20
2022-11-24T13:27:18.987Z,2.20
2022-11-24T13:29:47.925Z,2.20
2022-11-24T13:32:34.387Z,2.10
2022-11-24T13:35:13.354Z,2.20
2022-11-24T13:37:51.646Z,2.20
2022-11-24T13:40:38.047Z,2.20
2022-11-24T13:43:23.626Z,2.30
2022-11-24T13:45:52.663Z,2.30
2022-11-24T13:48:39.065Z,2.30
2022-11-24T13:51:15.622Z,2.30
2022-11-24T13:53:44.863Z,2.30
2022-11-24T13:56:23.112Z,2.30
2022-11-24T13:58:53.477Z,2.30
2022-11-24T14:01:23.292Z,2.30
2022-11-24T14:06:54.910Z,2.30
2022-11-24T14:09:25.098Z,2.40
2022-11-24T14:11:59.347Z,2.50
2022-11-24T14:14:29.202Z,2.60
2022-11-24T14:17:12.107Z,2.60
2022-11-24T14:19:40.234Z,2.60
2022-11-24T14:22:13.396Z,2.60
2022-11-24T14:24:45.250Z,2.60
2022-11-24T14:27:16.055Z,2.60
2022-11-24T14:29:55.802Z,2.70
2022-11-24T14:32:24.516Z,2.70
2022-11-24T14:34:54.260Z,2.60
2022-11-24T14:37:22.420Z,2.70
2022-11-24T14:39:50.575Z,2.70
2022-11-24T14:42:20.363Z,2.70
2022-11-24T14:44:50.911Z,2.70
2022-11-24T14:47:30.106Z,2.70
2022-11-24T14:50:06.824Z,2.70
2022-11-24T14:52:35.804Z,2.70
2022-11-24T14:55:21.844Z,2.70
2022-11-24T14:57:50.711Z,2.70
2022-11-24T15:00:20.684Z,2.70
2022-11-24T15:02:52.176Z,2.70
2022-11-24T15:05:21.058Z,2.70
2022-11-24T15:07:50.200Z,2.70
2022-11-24T15:10:19.955Z,2.80
2022-11-24T15:12:52.228Z,2.80
2022-11-24T15:15:21.559Z,2.80
2022-11-24T15:17:51.787Z,2.80
2022-11-24T15:20:23.517Z,2.70
2022-11-24T15:22:52.672Z,2.80
2022-11-24T15:25:33.724Z,2.80
2022-11-24T15:28:02.305Z,2.80
2022-11-24T15:30:30.788Z,2.70
2022-11-24T15:33:00.699Z,2.80
2022-11-24T15:35:30.688Z,2.80
2022-11-24T15:37:58.754Z,2.70
2022-11-24T15:40:26.955Z,2.80
2022-11-24T15:42:55.763Z,2.80
2022-11-24T15:45:24.814Z,2.80
2022-11-24T15:47:53.067Z,2.80
2022-11-24T15:50:22.913Z,2.80
2022-11-24T15:52:50.999Z,2.70
2022-11-24T15:55:20.221Z,2.80
2022-11-24T15:57:51.271Z,2.80
2022-11-24T16:00:20.744Z,2.80
2022-11-24T16:02:48.916Z,2.80
2022-11-24T16:05:17.763Z,2.80
2022-11-24T16:07:47.371Z,2.80
2022-11-24T16:10:21.419Z,2.70
2022-11-24T16:12:49.472Z,2.80
2022-11-24T16:15:17.678Z,2.80
2022-11-24T16:17:45.636Z,2.80
2022-11-24T16:20:13.949Z,2.80
2022-11-24T16:22:42.015Z,2.80
2022-11-24T16:25:11.986Z,2.80
2022-11-24T16:27:40.127Z,2.80
2022-11-24T16:30:09.091Z,2.80
2022-11-24T16:32:37.279Z,2.80
2022-11-24T16:35:06.058Z,2.80
2022-11-24T16:37:34.439Z,2.80
2022-11-24T16:40:02.714Z,2.80
2022-11-24T16:42:32.480Z,2.80
2022-11-24T16:45:00.719Z,2.90
2022-11-24T16:47:28.822Z,2.80
2022-11-24T16:49:56.916Z,2.90
2022-11-24T16:52:25.020Z,2.90
2022-11-24T16:54:53.119Z,2.80
2022-11-24T16:57:21.149Z,2.80
2022-11-24T16:59:50.485Z,2.80
2022-11-24T17:02:18.971Z,2.90
2022-11-24T17:04:47.140Z,2.90
2022-11-24T17:07:15.576Z,2.90
2022-11-24T17:09:46.179Z,2.90
2022-11-24T17:12:14.278Z,2.90
2022-11-24T17:14:42.302Z,2.90
2022-11-24T17:17:11.744Z,2.90
2022-11-24T17:19:39.979Z,2.90
2022-11-24T17:22:07.953Z,2.90
2022-11-24T17:24:38.746Z,2.90
2022-11-24T17:27:06.879Z,2.90
2022-11-24T17:29:34.946Z,2.90
2022-11-24T17:32:03.268Z,2.90
2022-11-24T17:34:32.782Z,2.90
2022-11-24T17:37:00.963Z,2.90
2022-11-24T17:39:29.168Z,2.90
2022-11-24T17:41:57.221Z,2.90
2022-11-24T17:44:25.365Z,2.90
2022-11-24T17:46:53.390Z,2.90
2022-11-24T17:49:21.459Z,2.90
2022-11-24T17:51:51.503Z,2.90
2022-11-24T17:57:07.972Z,2.90
2022-11-24T17:59:36.066Z,2.90
2022-11-24T18:02:04.124Z,2.90
2022-11-24T18:04:36.264Z,2.90
2022-11-24T18:07:06.103Z,2.90
2022-11-24T18:09:34.090Z,2.90
2022-11-24T18:12:02.175Z,2.90
2022-11-24T18:14:30.143Z,2.90
2022-11-24T18:16:58.312Z,2.90
2022-11-24T18:19:26.463Z,2.90
2022-11-24T18:21:54.487Z,2.90
2022-11-24T18:24:24.441Z,2.80
2022-11-24T18:26:52.511Z,2.90
2022-11-24T18:29:20.498Z,2.90
2022-11-24T18:31:48.550Z,2.90
2022-11-24T18:34:16.638Z,2.90
2022-11-24T18:36:47.560Z,2.90
2022-11-24T18:39:18.002Z,2.90
2022-11-24T18:41:47.745Z,2.90
2022-11-24T18:44:15.954Z,2.90
2022-11-24T18:46:47.103Z,2.90
2022-11-24T18:49:15.103Z,2.80
2022-11-24T18:51:44.280Z,2.90
2022-11-24T18:54:12.325Z,2.90
2022-11-24T18:56:40.581Z,2.80
2022-11-24T18:59:10.112Z,2.80
2022-11-24T19:01:38.754Z,2.80
2022-11-24T19:04:07.036Z,2.80
2022-11-24T19:06:35.786Z,2.80
2022-11-24T19:09:05.676Z,2.80
2022-11-24T19:11:35.650Z,2.80
2022-11-24T19:14:04.223Z,2.80
2022-11-24T19:16:33.944Z,2.80
2022-11-24T19:19:03.081Z,2.80
2022-11-24T19:21:31.944Z,2.80
2022-11-24T19:24:05.053Z,2.80
2022-11-24T19:26:35.059Z,2.80
2022-11-24T19:29:03.532Z,2.70
2022-11-24T19:31:31.705Z,2.70
2022-11-24T19:34:03.182Z,2.70
2022-11-24T19:36:31.395Z,2.70
2022-11-24T19:38:59.791Z,2.60
2022-11-24T19:41:28.566Z,2.70
2022-11-24T19:43:58.082Z,2.70
2022-11-24T19:46:27.530Z,2.70
2022-11-24T19:48:57.296Z,2.70
2022-11-24T19:51:27.663Z,2.60
2022-11-24T19:53:55.896Z,2.60
2022-11-24T19:56:24.988Z,2.60
2022-11-24T19:58:56.271Z,2.60
2022-11-24T20:01:25.819Z,2.60
2022-11-24T20:03:55.800Z,2.60
2022-11-24T20:06:23.809Z,2.60
2022-11-24T20:08:53.423Z,2.60
2022-11-24T20:11:22.337Z,2.50
2022-11-24T20:13:51.761Z,2.50
2022-11-24T20:16:20.443Z,2.50
2022-11-24T20:18:48.911Z,2.50
2022-11-24T20:21:17.651Z,2.50
2022-11-24T20:23:46.116Z,2.40
2022-11-24T20:26:16.338Z,2.40
2022-11-24T20:28:46.889Z,2.40
2022-11-24T20:31:15.962Z,2.40
2022-11-24T20:33:43.975Z,2.40
2022-11-24T20:36:13.245Z,2.40
2022-11-24T20:38:42.170Z,2.40
2022-11-24T20:41:11.240Z,2.40
2022-11-24T20:43:41.053Z,2.40
2022-11-24T20:46:09.827Z,2.50
2022-11-24T20:48:38.031Z,2.40
2022-11-24T20:51:06.695Z,2.40
2022-11-24T20:53:34.737Z,2.40
2022-11-24T20:56:06.215Z,2.40
2022-11-24T20:58:35.144Z,2.40
2022-11-24T21:01:08.625Z,2.40
2022-11-24T21:03:42.614Z,2.40
2022-11-24T21:06:11.870Z,2.40
2022-11-24T21:08:43.262Z,2.40
2022-11-24T21:11:12.971Z,2.50
2022-11-24T21:13:42.119Z,2.40
2022-11-24T21:16:15.229Z,2.50
2022-11-24T21:18:45.106Z,2.40
2022-11-24T21:21:13.767Z,2.40
2022-11-24T21:23:42.342Z,2.40
2022-11-24T21:26:16.230Z,2.40
2022-11-24T21:28:47.208Z,2.40
2022-11-24T21:31:17.594Z,2.40
2022-11-24T21:33:46.773Z,2.40
2022-11-24T21:36:15.545Z,2.40
2022-11-24T21:38:45.243Z,2.30
2022-11-24T21:41:14.108Z,2.30
2022-11-24T21:43:42.348Z,2.30
2022-11-24T21:46:11.185Z,2.30
2022-11-24T21:48:41.187Z,2.30
2022-11-24T21:51:11.901Z,2.30
2022-11-24T21:53:40.451Z,2.30
2022-11-24T21:56:12.774Z,2.20
2022-11-24T21:58:47.516Z,2.20
2022-11-24T22:01:16.125Z,2.20
2022-11-24T22:03:45.942Z,2.20
2022-11-24T22:06:13.950Z,2.20
2022-11-24T22:08:41.950Z,2.20
2022-11-24T22:11:13.011Z,2.20
2022-11-24T22:13:41.629Z,2.10
2022-11-24T22:16:10.585Z,2.20
2022-11-24T22:18:39.594Z,2.20
2022-11-24T22:21:11.248Z,2.10
2022-11-24T22:23:39.438Z,2.10
2022-11-24T22:26:08.464Z,2.10
2022-11-24T22:28:37.098Z,2.10
2022-11-24T22:31:05.865Z,2.10
2022-11-24T22:33:34.302Z,2.10
2022-11-24T22:36:02.887Z,2.10
2022-11-24T22:38:33.234Z,2.00
2022-11-24T22:41:05.265Z,2.00
2022-11-24T22:43:33.769Z,2.00
2022-11-24T22:46:05.326Z,1.90
2022-11-24T22:48:33.462Z,1.90
2022-11-24T22:51:05.464Z,1.90
2022-11-24T22:53:35.239Z,1.80
2022-11-24T22:56:03.877Z,1.90
2022-11-24T22:58:31.882Z,2.00
2022-11-24T23:01:04.655Z,1.90
2022-11-24T23:03:32.849Z,2.00
2022-11-24T23:06:03.584Z,2.00
2022-11-24T23:08:33.172Z,2.00
2022-11-24T23:11:03.304Z,2.00
2022-11-24T23:13:34.247Z,2.00
2022-11-24T23:16:02.785Z,2.00
2022-11-24T23:18:31.129Z,2.00
2022-11-24T23:21:05.269Z,2.10
2022-11-24T23:23:33.416Z,2.10
2022-11-24T23:26:05.953Z,2.00
2022-11-24T23:28:34.340Z,2.00
2022-11-24T23:31:02.946Z,2.00
2022-11-24T23:33:34.021Z,2.10
2022-11-24T23:36:03.362Z,2.10
2022-11-24T23:38:32.869Z,2.10
2022-11-24T23:41:04.568Z,2.10
2022-11-24T23:43:33.041Z,2.00
2022-11-24T23:46:04.527Z,2.00
2022-11-24T23:48:33.479Z,2.00
2022-11-24T23:51:04.611Z,2.10
2022-11-24T23:53:32.843Z,2.00
2022-11-24T23:56:02.618Z,2.00
2022-11-24T23:58:30.921Z,2.00
